createdAt,value
2023-04-17T00:04:46.470Z,8.37
2023-04-17T00:09:48.880Z,8.41
2023-04-17T00:14:50.448Z,8.38
2023-04-17T00:19:52.049Z,8.32
2023-04-17T00:24:53.606Z,8.25
2023-04-17T00:29:55.207Z,8.22
2023-04-17T00:34:56.715Z,8.20
2023-04-17T00:39:58.269Z,8.09
2023-04-17T00:44:59.857Z,8.10
2023-04-17T00:50:02.678Z,8.09
2023-04-17T00:55:04.685Z,7.88
2023-04-17T01:00:09.394Z,7.83
2023-04-17T01:05:11.091Z,7.83
2023-04-17T01:10:12.719Z,7.88
2023-04-17T01:15:14.819Z,7.89
2023-04-17T01:20:16.491Z,7.90
2023-04-17T01:25:19.134Z,7.91
2023-04-17T01:30:21.095Z,7.93
2023-04-17T01:35:42.902Z,7.88
2023-04-17T01:40:45.379Z,7.91
2023-04-17T01:45:47.060Z,7.89
2023-04-17T01:50:48.660Z,7.84
2023-04-17T01:55:50.239Z,7.72
2023-04-17T02:00:52.055Z,7.61
2023-04-17T02:05:53.741Z,7.59
2023-04-17T02:10:56.037Z,7.52
2023-04-17T02:15:57.759Z,7.39
2023-04-17T02:21:03.748Z,7.40
2023-04-17T02:26:05.803Z,7.50
2023-04-17T02:31:08.719Z,7.54
2023-04-17T02:36:10.562Z,7.62
2023-04-17T02:41:15.664Z,7.74
2023-04-17T02:46:18.266Z,7.78
2023-04-17T02:51:19.923Z,7.83
2023-04-17T02:56:21.727Z,7.84
2023-04-17T03:01:23.548Z,7.82
2023-04-17T03:06:26.609Z,7.83
2023-04-17T03:11:28.406Z,7.84
2023-04-17T03:16:30.135Z,7.81
2023-04-17T03:21:34.628Z,7.81
2023-04-17T03:26:36.683Z,7.83
2023-04-17T03:31:42.683Z,7.81
2023-04-17T03:36:44.637Z,7.78
2023-04-17T03:41:46.479Z,7.82
2023-04-17T03:46:48.189Z,7.83
2023-04-17T03:51:49.885Z,7.88
2023-04-17T03:56:55.869Z,7.91
2023-04-17T04:01:58.472Z,7.90
2023-04-17T04:07:02.022Z,7.90
2023-04-17T04:12:04.176Z,7.89
2023-04-17T04:17:11.788Z,7.91
2023-04-17T04:22:14.449Z,7.88
2023-04-17T04:27:22.796Z,7.87
2023-04-17T04:32:27.818Z,7.88
2023-04-17T04:37:30.211Z,7.86
2023-04-17T04:42:35.843Z,7.89
2023-04-17T04:47:47.698Z,7.92
2023-04-17T04:52:49.399Z,7.90
2023-04-17T04:58:08.641Z,7.89
2023-04-17T05:03:12.998Z,7.91
2023-04-17T05:08:15.509Z,7.98
2023-04-17T05:13:22.951Z,7.96
2023-04-17T05:18:27.757Z,7.91
2023-04-17T05:23:34.983Z,7.91
2023-04-17T05:28:36.658Z,7.91
2023-04-17T05:33:38.474Z,7.95
2023-04-17T05:38:41.072Z,7.92
2023-04-17T05:43:44.903Z,7.89
2023-04-17T05:48:46.813Z,7.90
2023-04-17T05:53:48.938Z,7.90
2023-04-17T05:58:50.733Z,7.92
2023-04-17T06:03:53.505Z,7.92
2023-04-17T06:08:59.174Z,7.98
2023-04-17T06:14:01.696Z,8.04
2023-04-17T06:19:03.508Z,8.09
2023-04-17T06:24:07.636Z,8.16
2023-04-17T06:29:09.438Z,8.18
2023-04-17T06:34:12.235Z,8.16
2023-04-17T06:39:17.624Z,8.25
2023-04-17T06:44:19.532Z,8.39
2023-04-17T06:49:22.417Z,8.52
2023-04-17T06:54:25.657Z,8.51
2023-04-17T06:59:27.230Z,8.53
2023-04-17T07:04:30.846Z,8.57
2023-04-17T07:09:32.479Z,8.53
2023-04-17T07:14:35.321Z,8.54
2023-04-17T07:19:37.517Z,8.50
2023-04-17T07:24:46.404Z,8.50
2023-04-17T07:29:54.309Z,8.61
2023-04-17T07:34:55.904Z,8.74
2023-04-17T07:39:57.432Z,8.98
2023-04-17T07:44:58.977Z,9.28
2023-04-17T07:50:00.522Z,9.42
2023-04-17T07:55:02.144Z,9.44
2023-04-17T08:00:07.071Z,9.53
2023-04-17T08:05:14.675Z,9.58
2023-04-17T08:10:16.510Z,9.70
2023-04-17T08:15:18.287Z,9.77
2023-04-17T08:20:19.998Z,9.85
2023-04-17T08:25:21.575Z,9.88
2023-04-17T08:30:23.985Z,9.74
2023-04-17T08:35:27.251Z,9.55
2023-04-17T08:40:29.250Z,9.56
2023-04-17T08:45:34.191Z,9.63
2023-04-17T08:50:37.076Z,9.82
2023-04-17T08:55:38.662Z,10.25
2023-04-17T09:00:42.624Z,10.61
2023-04-17T09:05:46.662Z,11.00
2023-04-17T09:10:50.705Z,11.08
2023-04-17T09:16:21.509Z,11.05
2023-04-17T09:21:28.828Z,10.84
2023-04-17T09:26:33.323Z,10.95
2023-04-17T09:31:36.421Z,11.15
2023-04-17T09:36:40.070Z,11.50
2023-04-17T09:41:42.026Z,11.81
2023-04-17T09:46:47.663Z,11.76
2023-04-17T09:51:50.163Z,11.61
2023-04-17T09:56:56.060Z,11.46
2023-04-17T10:02:10.595Z,11.44
2023-04-17T10:07:18.912Z,11.08
2023-04-17T10:12:21.064Z,11.08
2023-04-17T10:17:34.296Z,11.15
2023-04-17T10:22:41.045Z,11.49
2023-04-17T10:27:46.114Z,11.89
2023-04-17T10:33:28.085Z,12.08
2023-04-17T10:38:35.009Z,12.00
2023-04-17T10:43:41.529Z,11.74
2023-04-17T10:48:52.855Z,11.65
2023-04-17T10:53:59.885Z,11.94
2023-04-17T10:59:03.683Z,12.18
2023-04-17T11:04:06.226Z,12.23
2023-04-17T11:09:09.791Z,11.82
2023-04-17T11:14:14.810Z,11.56
2023-04-17T11:19:26.346Z,11.60
2023-04-17T11:24:32.396Z,12.13
2023-04-17T11:29:33.982Z,12.77
2023-04-17T11:34:37.524Z,12.58
2023-04-17T11:39:42.276Z,12.50
2023-04-17T11:44:44.831Z,12.13
2023-04-17T11:49:47.080Z,11.98
2023-04-17T11:54:57.238Z,12.00
2023-04-17T11:59:58.813Z,12.09
2023-04-17T12:05:13.964Z,12.33
2023-04-17T12:10:15.747Z,12.46
2023-04-17T12:15:17.391Z,12.69
2023-04-17T12:20:18.924Z,13.23
2023-04-17T12:25:20.861Z,13.91
2023-04-17T12:30:23.968Z,14.37
2023-04-17T12:35:25.772Z,14.59
2023-04-17T12:40:27.381Z,14.29
2023-04-17T12:45:28.982Z,13.67
2023-04-17T12:50:30.759Z,13.13
2023-04-17T12:55:32.703Z,12.74
2023-04-17T13:00:34.428Z,12.57
2023-04-17T13:05:36.069Z,12.48
2023-04-17T13:10:37.764Z,12.39
2023-04-17T13:15:39.426Z,12.56
2023-04-17T13:20:40.972Z,12.68
2023-04-17T13:25:42.589Z,12.81
2023-04-17T13:30:44.142Z,12.86
2023-04-17T13:35:46.342Z,12.95
2023-04-17T13:40:47.910Z,13.01
2023-04-17T13:45:52.272Z,12.84
2023-04-17T13:50:55.039Z,12.58
2023-04-17T13:55:56.596Z,12.41
2023-04-17T14:00:58.124Z,12.36
2023-04-17T14:06:05.533Z,12.29
2023-04-17T14:11:07.075Z,12.01
2023-04-17T14:16:08.804Z,11.83
2023-04-17T14:21:10.432Z,11.60
2023-04-17T14:26:12.747Z,11.50
2023-04-17T14:31:14.362Z,11.48
2023-04-17T14:36:16.012Z,11.42
2023-04-17T14:41:18.081Z,11.29
2023-04-17T14:46:19.654Z,11.20
2023-04-17T14:56:23.807Z,11.20
2023-04-17T15:01:25.700Z,11.38
2023-04-17T15:06:27.522Z,11.53
2023-04-17T15:11:29.085Z,11.69
2023-04-17T15:16:30.812Z,11.72
2023-04-17T15:21:32.439Z,11.74
2023-04-17T15:26:35.518Z,11.81
2023-04-17T15:31:37.473Z,11.77
2023-04-17T15:36:39.072Z,11.60
2023-04-17T15:41:40.955Z,11.41
2023-04-17T15:46:42.633Z,11.27
2023-04-17T15:51:46.713Z,11.15
2023-04-17T15:56:48.510Z,10.96
2023-04-17T16:01:50.719Z,10.61
2023-04-17T16:06:52.297Z,10.03
2023-04-17T16:11:53.856Z,9.33
2023-04-17T16:16:55.435Z,9.16
2023-04-17T16:21:57.570Z,9.40
2023-04-17T16:27:01.160Z,9.84
2023-04-17T16:32:03.003Z,10.08
2023-04-17T16:37:04.702Z,10.24
2023-04-17T16:42:06.408Z,10.36
2023-04-17T16:47:13.432Z,10.39
2023-04-17T16:52:16.310Z,10.34
2023-04-17T16:57:18.088Z,10.25
2023-04-17T17:02:19.675Z,10.08
2023-04-17T17:07:21.244Z,9.94
2023-04-17T17:12:22.978Z,9.85
2023-04-17T17:17:24.589Z,9.83
2023-04-17T17:22:26.233Z,9.85
2023-04-17T17:27:27.893Z,9.85
2023-04-17T17:32:29.476Z,9.82
2023-04-17T17:37:31.036Z,9.81
2023-04-17T17:42:33.145Z,9.83
2023-04-17T17:47:34.785Z,9.84
2023-04-17T17:52:36.389Z,9.78
2023-04-17T17:57:48.267Z,9.70
2023-04-17T18:02:51.175Z,9.67
2023-04-17T18:07:52.925Z,9.63
2023-04-17T18:12:54.533Z,9.60
2023-04-17T18:17:56.149Z,9.67
2023-04-17T18:22:57.769Z,9.70
2023-04-17T18:27:59.335Z,9.72
2023-04-17T18:33:00.963Z,9.87
2023-04-17T18:38:02.673Z,9.92
2023-04-17T18:43:05.835Z,9.94
2023-04-17T18:48:08.631Z,9.98
2023-04-17T18:53:10.272Z,9.96
2023-04-17T18:58:11.819Z,9.95
2023-04-17T19:03:13.412Z,9.86
2023-04-17T19:08:15.072Z,9.74
2023-04-17T19:13:16.677Z,9.79
2023-04-17T19:18:18.327Z,9.85
2023-04-17T19:23:19.926Z,9.77
2023-04-17T19:28:22.397Z,9.75
2023-04-17T19:33:24.071Z,9.73
2023-04-17T19:38:26.020Z,9.68
2023-04-17T19:43:27.695Z,9.59
2023-04-17T19:48:29.499Z,9.54
2023-04-17T19:53:32.207Z,9.52
2023-04-17T19:58:34.421Z,9.55
2023-04-17T20:03:38.282Z,9.55
2023-04-17T20:08:40.101Z,9.50
2023-04-17T20:13:42.225Z,9.41
2023-04-17T20:18:45.639Z,9.39
2023-04-17T20:23:47.773Z,9.31
2023-04-17T20:28:49.416Z,9.23
2023-04-17T20:33:51.070Z,9.17
2023-04-17T20:38:52.722Z,8.99
2023-04-17T20:43:59.035Z,8.91
2023-04-17T20:49:00.657Z,9.03
2023-04-17T20:54:02.204Z,9.00
2023-04-17T20:59:03.885Z,8.94
2023-04-17T21:04:05.452Z,8.89
2023-04-17T21:09:08.691Z,8.74
2023-04-17T21:14:11.551Z,8.49
2023-04-17T21:19:14.714Z,8.24
2023-04-17T21:24:16.298Z,8.02
2023-04-17T21:29:18.997Z,7.88
2023-04-17T21:34:21.010Z,7.73
2023-04-17T21:39:22.630Z,7.59
2023-04-17T21:44:29.738Z,7.68
2023-04-17T21:49:31.343Z,7.61
2023-04-17T21:54:33.572Z,7.51
2023-04-17T21:59:35.570Z,7.22
2023-04-17T22:04:37.286Z,6.97
2023-04-17T22:09:38.924Z,6.89
2023-04-17T22:14:40.892Z,6.75
2023-04-17T22:19:42.658Z,6.77
2023-04-17T22:24:44.381Z,6.66
2023-04-17T22:29:45.940Z,6.63
2023-04-17T22:34:48.948Z,6.44
2023-04-17T22:39:50.575Z,6.19
2023-04-17T22:44:52.539Z,6.07
2023-04-17T22:49:55.154Z,6.04
2023-04-17T22:54:56.819Z,5.87
2023-04-17T22:59:58.545Z,5.71
2023-04-17T23:05:00.286Z,5.59
2023-04-17T23:10:01.971Z,5.50
2023-04-17T23:15:04.037Z,5.36
2023-04-17T23:20:06.390Z,5.38
2023-04-17T23:25:08.419Z,5.48
2023-04-17T23:30:10.473Z,5.51
2023-04-17T23:35:12.050Z,5.60
2023-04-17T23:40:13.835Z,5.61
2023-04-17T23:45:17.881Z,5.62
2023-04-17T23:50:19.547Z,5.69
2023-04-17T23:55:26.608Z,5.58
